sensor_id;sensor_type;location;lat;lon;timestamp;P1;durP1;ratioP1;P2;durP2;ratioP2
20830;SDS011;10576;53.556;9.868;2023-04-05T00:01:20;3.80;;;3.13;;
20830;SDS011;10576;53.556;9.868;2023-04-05T00:03:46;4.95;;;3.03;;
20830;SDS011;10576;53.556;9.868;2023-04-05T00:06:12;5.93;;;3.30;;
20830;SDS011;10576;53.556;9.868;2023-04-05T00:08:37;6.68;;;3.25;;
20830;SDS011;10576;53.556;9.868;2023-04-05T00:11:03;4.53;;;3.00;;
20830;SDS011;10576;53.556;9.868;2023-04-05T00:13:30;3.45;;;3.03;;
20830;SDS011;10576;53.556;9.868;2023-04-05T00:15:55;3.70;;;3.00;;
20830;SDS011;10576;53.556;9.868;2023-04-05T00:18:22;4.03;;;3.13;;
20830;SDS011;10576;53.556;9.868;2023-04-05T00:20:52;5.93;;;3.10;;
20830;SDS011;10576;53.556;9.868;2023-04-05T00:23:19;6.68;;;3.05;;
20830;SDS011;10576;53.556;9.868;2023-04-05T00:25:46;4.30;;;3.00;;
20830;SDS011;10576;53.556;9.868;2023-04-05T00:28:12;4.47;;;2.83;;
20830;SDS011;10576;53.556;9.868;2023-04-05T00:30:38;5.47;;;3.10;;
20830;SDS011;10576;53.556;9.868;2023-04-05T00:33:04;4.63;;;3.13;;
20830;SDS011;10576;53.556;9.868;2023-04-05T00:35:30;5.27;;;3.07;;
20830;SDS011;10576;53.556;9.868;2023-04-05T00:37:56;4.57;;;3.00;;
20830;SDS011;10576;53.556;9.868;2023-04-05T00:40:22;5.10;;;3.33;;
20830;SDS011;10576;53.556;9.868;2023-04-05T00:42:48;6.10;;;3.17;;
20830;SDS011;10576;53.556;9.868;2023-04-05T00:45:14;5.47;;;3.30;;
20830;SDS011;10576;53.556;9.868;2023-04-05T00:47:40;4.83;;;3.33;;
20830;SDS011;10576;53.556;9.868;2023-04-05T00:50:07;4.78;;;3.30;;
20830;SDS011;10576;53.556;9.868;2023-04-05T00:52:35;4.18;;;3.08;;
20830;SDS011;10576;53.556;9.868;2023-04-05T00:55:02;5.55;;;3.40;;
20830;SDS011;10576;53.556;9.868;2023-04-05T00:57:30;5.00;;;3.20;;
20830;SDS011;10576;53.556;9.868;2023-04-05T00:59:58;7.45;;;3.47;;
20830;SDS011;10576;53.556;9.868;2023-04-05T01:02:31;5.35;;;3.50;;
20830;SDS011;10576;53.556;9.868;2023-04-05T01:04:58;5.88;;;3.80;;
20830;SDS011;10576;53.556;9.868;2023-04-05T01:09:56;7.50;;;3.75;;
20830;SDS011;10576;53.556;9.868;2023-04-05T01:12:26;5.30;;;3.90;;
20830;SDS011;10576;53.556;9.868;2023-04-05T01:14:53;6.43;;;4.40;;
20830;SDS011;10576;53.556;9.868;2023-04-05T01:17:23;5.55;;;3.83;;
20830;SDS011;10576;53.556;9.868;2023-04-05T01:19:56;7.25;;;4.30;;
20830;SDS011;10576;53.556;9.868;2023-04-05T01:30:31;10.13;;;5.20;;
20830;SDS011;10576;53.556;9.868;2023-04-05T01:38:17;9.57;;;5.35;;
20830;SDS011;10576;53.556;9.868;2023-04-05T01:40:43;8.60;;;5.68;;
20830;SDS011;10576;53.556;9.868;2023-04-05T01:43:12;8.70;;;6.18;;
20830;SDS011;10576;53.556;9.868;2023-04-05T01:45:40;8.93;;;6.65;;
20830;SDS011;10576;53.556;9.868;2023-04-05T01:48:06;12.38;;;9.27;;
20830;SDS011;10576;53.556;9.868;2023-04-05T01:50:31;13.88;;;8.38;;
20830;SDS011;10576;53.556;9.868;2023-04-05T01:52:57;13.13;;;8.17;;
20830;SDS011;10576;53.556;9.868;2023-04-05T01:55:23;13.63;;;8.20;;
20830;SDS011;10576;53.556;9.868;2023-04-05T01:57:50;14.67;;;7.93;;
20830;SDS011;10576;53.556;9.868;2023-04-05T02:00:16;13.32;;;7.75;;
20830;SDS011;10576;53.556;9.868;2023-04-05T02:02:42;10.87;;;7.60;;
20830;SDS011;10576;53.556;9.868;2023-04-05T02:05:08;14.52;;;8.20;;
20830;SDS011;10576;53.556;9.868;2023-04-05T02:07:33;13.13;;;8.10;;
20830;SDS011;10576;53.556;9.868;2023-04-05T02:09:59;13.23;;;8.25;;
20830;SDS011;10576;53.556;9.868;2023-04-05T02:12:25;12.53;;;8.10;;
20830;SDS011;10576;53.556;9.868;2023-04-05T02:14:51;15.23;;;8.43;;
20830;SDS011;10576;53.556;9.868;2023-04-05T02:17:17;13.35;;;8.00;;
20830;SDS011;10576;53.556;9.868;2023-04-05T02:19:43;14.30;;;8.55;;
20830;SDS011;10576;53.556;9.868;2023-04-05T02:22:11;13.73;;;8.15;;
20830;SDS011;10576;53.556;9.868;2023-04-05T02:24:37;12.20;;;7.97;;
20830;SDS011;10576;53.556;9.868;2023-04-05T02:27:02;14.47;;;8.07;;
20830;SDS011;10576;53.556;9.868;2023-04-05T02:29:28;13.15;;;7.72;;
20830;SDS011;10576;53.556;9.868;2023-04-05T02:31:55;11.35;;;7.53;;
20830;SDS011;10576;53.556;9.868;2023-04-05T02:34:21;10.32;;;7.45;;
20830;SDS011;10576;53.556;9.868;2023-04-05T02:36:50;10.65;;;7.00;;
20830;SDS011;10576;53.556;9.868;2023-04-05T02:39:16;11.63;;;7.50;;
20830;SDS011;10576;53.556;9.868;2023-04-05T02:41:42;11.57;;;7.20;;
20830;SDS011;10576;53.556;9.868;2023-04-05T02:44:08;11.45;;;7.13;;
20830;SDS011;10576;53.556;9.868;2023-04-05T02:46:33;10.75;;;6.90;;
20830;SDS011;10576;53.556;9.868;2023-04-05T02:49:00;10.77;;;6.90;;
20830;SDS011;10576;53.556;9.868;2023-04-05T02:51:25;12.10;;;7.00;;
20830;SDS011;10576;53.556;9.868;2023-04-05T02:53:51;10.40;;;6.95;;
20830;SDS011;10576;53.556;9.868;2023-04-05T02:56:17;10.82;;;6.57;;
20830;SDS011;10576;53.556;9.868;2023-04-05T02:58:45;9.50;;;6.30;;
20830;SDS011;10576;53.556;9.868;2023-04-05T03:01:13;9.55;;;6.35;;
20830;SDS011;10576;53.556;9.868;2023-04-05T03:03:41;9.95;;;6.07;;
20830;SDS011;10576;53.556;9.868;2023-04-05T03:06:07;10.38;;;6.47;;
20830;SDS011;10576;53.556;9.868;2023-04-05T03:08:40;10.25;;;6.38;;
20830;SDS011;10576;53.556;9.868;2023-04-05T03:11:10;9.00;;;5.78;;
20830;SDS011;10576;53.556;9.868;2023-04-05T03:13:36;9.85;;;5.85;;
20830;SDS011;10576;53.556;9.868;2023-04-05T03:16:03;8.75;;;6.03;;
20830;SDS011;10576;53.556;9.868;2023-04-05T03:18:29;7.30;;;5.70;;
20830;SDS011;10576;53.556;9.868;2023-04-05T03:20:55;10.10;;;5.78;;
20830;SDS011;10576;53.556;9.868;2023-04-05T03:23:25;9.47;;;6.00;;
20830;SDS011;10576;53.556;9.868;2023-04-05T03:25:54;8.48;;;5.75;;
20830;SDS011;10576;53.556;9.868;2023-04-05T03:28:27;11.75;;;5.78;;
20830;SDS011;10576;53.556;9.868;2023-04-05T03:30:53;8.65;;;5.80;;
20830;SDS011;10576;53.556;9.868;2023-04-05T03:33:19;9.70;;;5.85;;
20830;SDS011;10576;53.556;9.868;2023-04-05T03:35:45;8.32;;;5.90;;
20830;SDS011;10576;53.556;9.868;2023-04-05T03:38:11;8.65;;;5.68;;
20830;SDS011;10576;53.556;9.868;2023-04-05T03:40:37;8.18;;;5.68;;
20830;SDS011;10576;53.556;9.868;2023-04-05T03:43:04;8.75;;;5.57;;
20830;SDS011;10576;53.556;9.868;2023-04-05T03:45:30;10.63;;;5.82;;
20830;SDS011;10576;53.556;9.868;2023-04-05T03:47:56;9.45;;;5.63;;
20830;SDS011;10576;53.556;9.868;2023-04-05T03:50:22;8.15;;;5.63;;
20830;SDS011;10576;53.556;9.868;2023-04-05T03:52:48;6.30;;;5.33;;
20830;SDS011;10576;53.556;9.868;2023-04-05T03:55:14;8.60;;;5.47;;
20830;SDS011;10576;53.556;9.868;2023-04-05T03:57:41;9.15;;;5.65;;
20830;SDS011;10576;53.556;9.868;2023-04-05T04:00:07;8.98;;;5.65;;
20830;SDS011;10576;53.556;9.868;2023-04-05T04:02:42;9.32;;;5.78;;
20830;SDS011;10576;53.556;9.868;2023-04-05T04:05:09;10.88;;;6.03;;
20830;SDS011;10576;53.556;9.868;2023-04-05T04:07:35;9.80;;;5.68;;
20830;SDS011;10576;53.556;9.868;2023-04-05T04:10:02;9.50;;;6.47;;
20830;SDS011;10576;53.556;9.868;2023-04-05T04:12:31;9.30;;;6.40;;
20830;SDS011;10576;53.556;9.868;2023-04-05T04:14:57;10.55;;;5.93;;
20830;SDS011;10576;53.556;9.868;2023-04-05T04:19:55;11.90;;;6.25;;
20830;SDS011;10576;53.556;9.868;2023-04-05T04:22:22;8.30;;;6.07;;
20830;SDS011;10576;53.556;9.868;2023-04-05T04:24:50;10.98;;;6.38;;
20830;SDS011;10576;53.556;9.868;2023-04-05T04:27:17;9.25;;;6.35;;
20830;SDS011;10576;53.556;9.868;2023-04-05T04:29:45;9.75;;;6.30;;
20830;SDS011;10576;53.556;9.868;2023-04-05T04:32:15;9.15;;;6.25;;
20830;SDS011;10576;53.556;9.868;2023-04-05T04:34:41;12.48;;;7.20;;
20830;SDS011;10576;53.556;9.868;2023-04-05T04:37:12;10.30;;;6.70;;
20830;SDS011;10576;53.556;9.868;2023-04-05T04:39:45;10.10;;;6.60;;
20830;SDS011;10576;53.556;9.868;2023-04-05T04:42:13;10.05;;;6.65;;
20830;SDS011;10576;53.556;9.868;2023-04-05T04:44:44;11.25;;;7.13;;
20830;SDS011;10576;53.556;9.868;2023-04-05T04:47:10;9.20;;;6.18;;
20830;SDS011;10576;53.556;9.868;2023-04-05T04:49:41;9.57;;;6.77;;
20830;SDS011;10576;53.556;9.868;2023-04-05T04:52:07;11.00;;;6.60;;
20830;SDS011;10576;53.556;9.868;2023-04-05T04:54:34;10.32;;;6.80;;
20830;SDS011;10576;53.556;9.868;2023-04-05T04:57:00;9.57;;;6.85;;
20830;SDS011;10576;53.556;9.868;2023-04-05T04:59:27;9.93;;;6.72;;
20830;SDS011;10576;53.556;9.868;2023-04-05T05:01:53;12.80;;;7.05;;
20830;SDS011;10576;53.556;9.868;2023-04-05T05:04:19;11.52;;;6.68;;
20830;SDS011;10576;53.556;9.868;2023-04-05T05:06:45;10.15;;;6.88;;
20830;SDS011;10576;53.556;9.868;2023-04-05T05:09:14;10.27;;;6.60;;
20830;SDS011;10576;53.556;9.868;2023-04-05T05:11:40;11.43;;;6.85;;
20830;SDS011;10576;53.556;9.868;2023-04-05T05:14:05;10.57;;;6.95;;
20830;SDS011;10576;53.556;9.868;2023-04-05T05:16:31;10.57;;;6.88;;
20830;SDS011;10576;53.556;9.868;2023-04-05T05:18:57;9.07;;;6.47;;
20830;SDS011;10576;53.556;9.868;2023-04-05T05:21:23;9.65;;;6.60;;
20830;SDS011;10576;53.556;9.868;2023-04-05T05:23:50;11.65;;;6.80;;
20830;SDS011;10576;53.556;9.868;2023-04-05T05:26:16;11.23;;;6.68;;
20830;SDS011;10576;53.556;9.868;2023-04-05T05:28:42;10.63;;;6.30;;
20830;SDS011;10576;53.556;9.868;2023-04-05T05:31:07;12.43;;;7.20;;
20830;SDS011;10576;53.556;9.868;2023-04-05T05:33:34;10.03;;;6.70;;
20830;SDS011;10576;53.556;9.868;2023-04-05T05:36:00;12.25;;;6.97;;
20830;SDS011;10576;53.556;9.868;2023-04-05T05:38:27;12.23;;;7.60;;
20830;SDS011;10576;53.556;9.868;2023-04-05T05:40:56;10.77;;;6.82;;
20830;SDS011;10576;53.556;9.868;2023-04-05T05:43:22;11.70;;;6.70;;
20830;SDS011;10576;53.556;9.868;2023-04-05T05:45:48;11.52;;;6.88;;
20830;SDS011;10576;53.556;9.868;2023-04-05T05:48:14;12.02;;;6.78;;
20830;SDS011;10576;53.556;9.868;2023-04-05T05:50:40;10.32;;;6.90;;
20830;SDS011;10576;53.556;9.868;2023-04-05T05:53:06;11.73;;;6.97;;
20830;SDS011;10576;53.556;9.868;2023-04-05T05:55:32;11.33;;;6.77;;
20830;SDS011;10576;53.556;9.868;2023-04-05T05:57:58;13.73;;;7.75;;
20830;SDS011;10576;53.556;9.868;2023-04-05T06:00:24;22.92;;;8.73;;
20830;SDS011;10576;53.556;9.868;2023-04-05T06:02:51;18.90;;;7.55;;
20830;SDS011;10576;53.556;9.868;2023-04-05T06:05:18;12.20;;;7.22;;
20830;SDS011;10576;53.556;9.868;2023-04-05T06:07:44;13.77;;;7.18;;
20830;SDS011;10576;53.556;9.868;2023-04-05T06:10:10;14.15;;;7.78;;
20830;SDS011;10576;53.556;9.868;2023-04-05T06:12:37;15.25;;;7.15;;
20830;SDS011;10576;53.556;9.868;2023-04-05T06:15:03;15.05;;;7.50;;
20830;SDS011;10576;53.556;9.868;2023-04-05T06:17:29;13.32;;;6.75;;
20830;SDS011;10576;53.556;9.868;2023-04-05T06:19:54;14.02;;;6.72;;
20830;SDS011;10576;53.556;9.868;2023-04-05T06:22:20;9.95;;;6.88;;
20830;SDS011;10576;53.556;9.868;2023-04-05T06:24:47;12.20;;;6.57;;
20830;SDS011;10576;53.556;9.868;2023-04-05T06:27:13;9.07;;;6.53;;
20830;SDS011;10576;53.556;9.868;2023-04-05T06:29:39;8.77;;;6.15;;
20830;SDS011;10576;53.556;9.868;2023-04-05T06:32:05;10.13;;;6.63;;
20830;SDS011;10576;53.556;9.868;2023-04-05T06:34:31;12.45;;;6.88;;
20830;SDS011;10576;53.556;9.868;2023-04-05T06:36:57;13.60;;;6.50;;
20830;SDS011;10576;53.556;9.868;2023-04-05T06:39:23;14.65;;;6.70;;
20830;SDS011;10576;53.556;9.868;2023-04-05T06:41:49;12.70;;;6.68;;
20830;SDS011;10576;53.556;9.868;2023-04-05T06:44:15;12.50;;;6.90;;
20830;SDS011;10576;53.556;9.868;2023-04-05T06:46:40;11.87;;;6.87;;
20830;SDS011;10576;53.556;9.868;2023-04-05T06:49:06;10.38;;;6.65;;
20830;SDS011;10576;53.556;9.868;2023-04-05T06:51:32;14.38;;;6.47;;
20830;SDS011;10576;53.556;9.868;2023-04-05T06:53:58;13.75;;;6.53;;
20830;SDS011;10576;53.556;9.868;2023-04-05T06:56:24;11.00;;;6.63;;
20830;SDS011;10576;53.556;9.868;2023-04-05T06:58:51;9.75;;;5.95;;
20830;SDS011;10576;53.556;9.868;2023-04-05T07:01:18;15.40;;;8.10;;
20830;SDS011;10576;53.556;9.868;2023-04-05T07:03:44;16.20;;;9.10;;
20830;SDS011;10576;53.556;9.868;2023-04-05T07:06:10;22.75;;;11.98;;
20830;SDS011;10576;53.556;9.868;2023-04-05T07:08:36;10.90;;;6.32;;
20830;SDS011;10576;53.556;9.868;2023-04-05T07:11:02;14.07;;;6.00;;
20830;SDS011;10576;53.556;9.868;2023-04-05T07:13:28;14.18;;;8.23;;
20830;SDS011;10576;53.556;9.868;2023-04-05T07:16:00;12.80;;;6.60;;
20830;SDS011;10576;53.556;9.868;2023-04-05T07:18:26;14.07;;;6.63;;
20830;SDS011;10576;53.556;9.868;2023-04-05T07:20:54;11.17;;;5.67;;
20830;SDS011;10576;53.556;9.868;2023-04-05T07:23:24;12.43;;;5.97;;
20830;SDS011;10576;53.556;9.868;2023-04-05T07:25:50;11.02;;;5.30;;
20830;SDS011;10576;53.556;9.868;2023-04-05T07:28:16;9.93;;;5.00;;
20830;SDS011;10576;53.556;9.868;2023-04-05T07:30:42;10.05;;;5.00;;
20830;SDS011;10576;53.556;9.868;2023-04-05T07:33:08;6.70;;;4.18;;
20830;SDS011;10576;53.556;9.868;2023-04-05T07:35:35;11.07;;;4.60;;
20830;SDS011;10576;53.556;9.868;2023-04-05T07:38:01;5.93;;;3.40;;
20830;SDS011;10576;53.556;9.868;2023-04-05T07:40:27;8.00;;;3.60;;
20830;SDS011;10576;53.556;9.868;2023-04-05T07:42:53;5.20;;;3.20;;
20830;SDS011;10576;53.556;9.868;2023-04-05T07:45:19;5.85;;;3.15;;
20830;SDS011;10576;53.556;9.868;2023-04-05T07:47:45;5.70;;;3.67;;
20830;SDS011;10576;53.556;9.868;2023-04-05T07:50:11;6.03;;;2.88;;
20830;SDS011;10576;53.556;9.868;2023-04-05T07:52:39;4.75;;;2.70;;
20830;SDS011;10576;53.556;9.868;2023-04-05T07:55:06;5.40;;;2.83;;
20830;SDS011;10576;53.556;9.868;2023-04-05T07:57:33;3.13;;;2.80;;
20830;SDS011;10576;53.556;9.868;2023-04-05T07:59:59;6.53;;;2.90;;
20830;SDS011;10576;53.556;9.868;2023-04-05T08:02:25;3.22;;;2.85;;
20830;SDS011;10576;53.556;9.868;2023-04-05T08:04:51;6.60;;;2.80;;
20830;SDS011;10576;53.556;9.868;2023-04-05T08:07:17;4.43;;;2.70;;
20830;SDS011;10576;53.556;9.868;2023-04-05T08:09:43;3.92;;;2.67;;
20830;SDS011;10576;53.556;9.868;2023-04-05T08:12:08;3.40;;;2.77;;
20830;SDS011;10576;53.556;9.868;2023-04-05T08:14:35;3.78;;;2.65;;
20830;SDS011;10576;53.556;9.868;2023-04-05T08:17:01;6.20;;;3.00;;
20830;SDS011;10576;53.556;9.868;2023-04-05T08:19:27;4.60;;;3.25;;
20830;SDS011;10576;53.556;9.868;2023-04-05T08:21:53;4.50;;;2.83;;
20830;SDS011;10576;53.556;9.868;2023-04-05T08:24:18;4.97;;;3.20;;
20830;SDS011;10576;53.556;9.868;2023-04-05T08:26:44;6.03;;;3.67;;
20830;SDS011;10576;53.556;9.868;2023-04-05T08:29:10;4.70;;;3.15;;
20830;SDS011;10576;53.556;9.868;2023-04-05T08:31:36;7.57;;;3.60;;
20830;SDS011;10576;53.556;9.868;2023-04-05T08:34:01;6.73;;;3.70;;
20830;SDS011;10576;53.556;9.868;2023-04-05T08:36:29;6.82;;;3.35;;
20830;SDS011;10576;53.556;9.868;2023-04-05T08:38:54;6.07;;;3.67;;
20830;SDS011;10576;53.556;9.868;2023-04-05T08:41:22;5.63;;;3.85;;
20830;SDS011;10576;53.556;9.868;2023-04-05T08:43:59;4.63;;;3.53;;
20830;SDS011;10576;53.556;9.868;2023-04-05T08:46:27;7.72;;;3.85;;
20830;SDS011;10576;53.556;9.868;2023-04-05T08:48:56;6.53;;;3.83;;
20830;SDS011;10576;53.556;9.868;2023-04-05T08:51:22;7.28;;;3.70;;
20830;SDS011;10576;53.556;9.868;2023-04-05T08:53:50;8.05;;;4.03;;
20830;SDS011;10576;53.556;9.868;2023-04-05T08:56:19;5.88;;;3.85;;
20830;SDS011;10576;53.556;9.868;2023-04-05T08:59:00;6.47;;;3.90;;
20830;SDS011;10576;53.556;9.868;2023-04-05T09:01:31;4.05;;;3.30;;
20830;SDS011;10576;53.556;9.868;2023-04-05T09:04:07;5.75;;;3.80;;
20830;SDS011;10576;53.556;9.868;2023-04-05T09:06:38;6.55;;;4.13;;
20830;SDS011;10576;53.556;9.868;2023-04-05T09:09:06;10.80;;;3.85;;
20830;SDS011;10576;53.556;9.868;2023-04-05T09:11:33;4.55;;;3.42;;
20830;SDS011;10576;53.556;9.868;2023-04-05T09:14:01;5.88;;;3.60;;
20830;SDS011;10576;53.556;9.868;2023-04-05T09:16:28;4.82;;;3.40;;
20830;SDS011;10576;53.556;9.868;2023-04-05T09:18:56;5.17;;;3.30;;
20830;SDS011;10576;53.556;9.868;2023-04-05T09:21:21;5.00;;;3.33;;
20830;SDS011;10576;53.556;9.868;2023-04-05T09:23:53;3.83;;;3.40;;
20830;SDS011;10576;53.556;9.868;2023-04-05T09:26:20;4.80;;;3.30;;
20830;SDS011;10576;53.556;9.868;2023-04-05T09:28:50;4.10;;;3.30;;
20830;SDS011;10576;53.556;9.868;2023-04-05T09:31:32;4.93;;;3.10;;
20830;SDS011;10576;53.556;9.868;2023-04-05T09:34:03;3.50;;;2.95;;
20830;SDS011;10576;53.556;9.868;2023-04-05T09:36:29;3.63;;;2.97;;
20830;SDS011;10576;53.556;9.868;2023-04-05T09:39:07;3.30;;;3.00;;
20830;SDS011;10576;53.556;9.868;2023-04-05T09:41:34;5.30;;;3.60;;
20830;SDS011;10576;53.556;9.868;2023-04-05T09:44:01;5.10;;;3.53;;
20830;SDS011;10576;53.556;9.868;2023-04-05T09:46:31;4.67;;;3.43;;
20830;SDS011;10576;53.556;9.868;2023-04-05T09:48:58;5.03;;;3.40;;
20830;SDS011;10576;53.556;9.868;2023-04-05T09:51:35;4.27;;;3.40;;
20830;SDS011;10576;53.556;9.868;2023-04-05T09:54:09;3.20;;;2.90;;
20830;SDS011;10576;53.556;9.868;2023-04-05T09:56:36;3.75;;;3.03;;
20830;SDS011;10576;53.556;9.868;2023-04-05T09:59:07;5.00;;;3.63;;
20830;SDS011;10576;53.556;9.868;2023-04-05T10:01:37;5.15;;;3.80;;
20830;SDS011;10576;53.556;9.868;2023-04-05T10:04:07;4.82;;;3.83;;
20830;SDS011;10576;53.556;9.868;2023-04-05T10:06:51;4.78;;;3.70;;
20830;SDS011;10576;53.556;9.868;2023-04-05T10:09:17;5.32;;;3.70;;
20830;SDS011;10576;53.556;9.868;2023-04-05T10:11:43;4.47;;;3.60;;
20830;SDS011;10576;53.556;9.868;2023-04-05T10:14:09;5.70;;;3.40;;
20830;SDS011;10576;53.556;9.868;2023-04-05T10:16:36;3.90;;;3.13;;
20830;SDS011;10576;53.556;9.868;2023-04-05T10:19:19;5.43;;;3.40;;
20830;SDS011;10576;53.556;9.868;2023-04-05T10:21:57;4.97;;;3.55;;
20830;SDS011;10576;53.556;9.868;2023-04-05T10:27:06;5.17;;;3.67;;
20830;SDS011;10576;53.556;9.868;2023-04-05T10:29:58;4.47;;;3.40;;
20830;SDS011;10576;53.556;9.868;2023-04-05T10:32:29;5.27;;;3.70;;
20830;SDS011;10576;53.556;9.868;2023-04-05T10:35:27;4.53;;;3.33;;
20830;SDS011;10576;53.556;9.868;2023-04-05T10:40:35;3.67;;;3.28;;
20830;SDS011;10576;53.556;9.868;2023-04-05T10:43:02;6.05;;;3.67;;
20830;SDS011;10576;53.556;9.868;2023-04-05T10:45:31;5.65;;;3.60;;
20830;SDS011;10576;53.556;9.868;2023-04-05T10:47:57;5.13;;;3.97;;
20830;SDS011;10576;53.556;9.868;2023-04-05T10:50:30;6.82;;;3.92;;
20830;SDS011;10576;53.556;9.868;2023-04-05T10:52:56;5.15;;;3.67;;
20830;SDS011;10576;53.556;9.868;2023-04-05T10:55:24;4.25;;;3.67;;
20830;SDS011;10576;53.556;9.868;2023-04-05T10:57:50;4.55;;;3.78;;
20830;SDS011;10576;53.556;9.868;2023-04-05T11:00:18;4.68;;;3.58;;
20830;SDS011;10576;53.556;9.868;2023-04-05T11:02:45;5.78;;;4.00;;
20830;SDS011;10576;53.556;9.868;2023-04-05T11:08:14;4.75;;;4.00;;
20830;SDS011;10576;53.556;9.868;2023-04-05T11:10:40;4.40;;;4.00;;
20830;SDS011;10576;53.556;9.868;2023-04-05T11:13:07;5.03;;;4.00;;
20830;SDS011;10576;53.556;9.868;2023-04-05T11:15:34;5.97;;;4.30;;
20830;SDS011;10576;53.556;9.868;2023-04-05T11:20:48;5.57;;;3.92;;
20830;SDS011;10576;53.556;9.868;2023-04-05T11:23:21;8.23;;;4.13;;
20830;SDS011;10576;53.556;9.868;2023-04-05T11:25:50;5.10;;;4.30;;
20830;SDS011;10576;53.556;9.868;2023-04-05T11:28:35;5.57;;;4.40;;
20830;SDS011;10576;53.556;9.868;2023-04-05T11:31:16;6.20;;;4.40;;
20830;SDS011;10576;53.556;9.868;2023-04-05T11:36:12;5.37;;;4.13;;
20830;SDS011;10576;53.556;9.868;2023-04-05T11:38:42;7.25;;;4.45;;
20830;SDS011;10576;53.556;9.868;2023-04-05T11:41:12;6.03;;;4.18;;
20830;SDS011;10576;53.556;9.868;2023-04-05T11:43:44;4.40;;;3.87;;
20830;SDS011;10576;53.556;9.868;2023-04-05T11:46:16;5.05;;;3.55;;
20830;SDS011;10576;53.556;9.868;2023-04-05T11:48:43;4.43;;;4.00;;
20830;SDS011;10576;53.556;9.868;2023-04-05T11:51:13;5.80;;;4.20;;
20830;SDS011;10576;53.556;9.868;2023-04-05T11:53:44;5.40;;;4.20;;
20830;SDS011;10576;53.556;9.868;2023-04-05T11:56:10;5.95;;;4.00;;
20830;SDS011;10576;53.556;9.868;2023-04-05T11:58:39;5.57;;;3.87;;
20830;SDS011;10576;53.556;9.868;2023-04-05T12:01:06;4.38;;;3.90;;
20830;SDS011;10576;53.556;9.868;2023-04-05T12:03:36;7.85;;;3.97;;
20830;SDS011;10576;53.556;9.868;2023-04-05T12:06:03;6.28;;;3.85;;
20830;SDS011;10576;53.556;9.868;2023-04-05T12:08:37;4.40;;;4.00;;
20830;SDS011;10576;53.556;9.868;2023-04-05T12:11:07;4.40;;;4.00;;
20830;SDS011;10576;53.556;9.868;2023-04-05T12:13:34;4.93;;;3.80;;
20830;SDS011;10576;53.556;9.868;2023-04-05T12:16:01;5.87;;;3.87;;
20830;SDS011;10576;53.556;9.868;2023-04-05T12:18:31;4.73;;;3.90;;
20830;SDS011;10576;53.556;9.868;2023-04-05T12:20:59;6.65;;;4.10;;
20830;SDS011;10576;53.556;9.868;2023-04-05T12:23:26;4.45;;;3.88;;
20830;SDS011;10576;53.556;9.868;2023-04-05T12:25:53;5.38;;;4.00;;
20830;SDS011;10576;53.556;9.868;2023-04-05T12:28:20;7.97;;;4.60;;
20830;SDS011;10576;53.556;9.868;2023-04-05T12:30:55;4.73;;;4.23;;
20830;SDS011;10576;53.556;9.868;2023-04-05T12:33:25;4.90;;;4.40;;
20830;SDS011;10576;53.556;9.868;2023-04-05T12:35:55;6.35;;;4.13;;
20830;SDS011;10576;53.556;9.868;2023-04-05T12:38:24;5.78;;;4.20;;
20830;SDS011;10576;53.556;9.868;2023-04-05T12:40:51;5.13;;;4.10;;
20830;SDS011;10576;53.556;9.868;2023-04-05T12:43:18;5.57;;;4.18;;
20830;SDS011;10576;53.556;9.868;2023-04-05T12:45:44;5.00;;;4.30;;
20830;SDS011;10576;53.556;9.868;2023-04-05T12:48:11;5.15;;;4.18;;
20830;SDS011;10576;53.556;9.868;2023-04-05T12:50:45;6.65;;;4.47;;
20830;SDS011;10576;53.556;9.868;2023-04-05T12:53:15;6.15;;;4.35;;
20830;SDS011;10576;53.556;9.868;2023-04-05T12:55:53;5.60;;;4.20;;
20830;SDS011;10576;53.556;9.868;2023-04-05T12:58:20;5.50;;;4.35;;
20830;SDS011;10576;53.556;9.868;2023-04-05T13:00:59;5.30;;;4.35;;
20830;SDS011;10576;53.556;9.868;2023-04-05T13:03:25;7.03;;;4.60;;
20830;SDS011;10576;53.556;9.868;2023-04-05T13:05:51;7.50;;;4.60;;
20830;SDS011;10576;53.556;9.868;2023-04-05T13:08:17;5.45;;;4.70;;
20830;SDS011;10576;53.556;9.868;2023-04-05T13:10:44;6.27;;;5.00;;
20830;SDS011;10576;53.556;9.868;2023-04-05T13:13:11;5.53;;;4.53;;
20830;SDS011;10576;53.556;9.868;2023-04-05T13:15:40;5.18;;;4.38;;
20830;SDS011;10576;53.556;9.868;2023-04-05T13:18:06;6.53;;;5.00;;
20830;SDS011;10576;53.556;9.868;2023-04-05T13:20:31;5.90;;;4.90;;
20830;SDS011;10576;53.556;9.868;2023-04-05T13:22:58;4.80;;;4.40;;
20830;SDS011;10576;53.556;9.868;2023-04-05T13:25:24;5.78;;;4.57;;
20830;SDS011;10576;53.556;9.868;2023-04-05T13:27:50;5.70;;;4.30;;
20830;SDS011;10576;53.556;9.868;2023-04-05T13:30:16;5.13;;;4.10;;
20830;SDS011;10576;53.556;9.868;2023-04-05T13:32:42;6.15;;;4.13;;
20830;SDS011;10576;53.556;9.868;2023-04-05T13:35:08;6.97;;;4.20;;
20830;SDS011;10576;53.556;9.868;2023-04-05T13:37:34;4.97;;;4.45;;
20830;SDS011;10576;53.556;9.868;2023-04-05T13:40:00;5.00;;;4.50;;
20830;SDS011;10576;53.556;9.868;2023-04-05T13:42:25;5.70;;;4.57;;
20830;SDS011;10576;53.556;9.868;2023-04-05T13:44:51;5.50;;;4.57;;
20830;SDS011;10576;53.556;9.868;2023-04-05T13:47:17;6.37;;;5.00;;
20830;SDS011;10576;53.556;9.868;2023-04-05T13:49:43;8.02;;;4.68;;
20830;SDS011;10576;53.556;9.868;2023-04-05T13:52:09;5.80;;;4.73;;
20830;SDS011;10576;53.556;9.868;2023-04-05T13:54:35;6.10;;;4.55;;
20830;SDS011;10576;53.556;9.868;2023-04-05T13:57:01;5.07;;;4.57;;
20830;SDS011;10576;53.556;9.868;2023-04-05T13:59:27;6.18;;;4.20;;
20830;SDS011;10576;53.556;9.868;2023-04-05T14:01:52;4.88;;;4.47;;
20830;SDS011;10576;53.556;9.868;2023-04-05T14:04:18;5.45;;;4.50;;
20830;SDS011;10576;53.556;9.868;2023-04-05T14:06:44;5.50;;;4.50;;
20830;SDS011;10576;53.556;9.868;2023-04-05T14:09:10;4.90;;;4.40;;
20830;SDS011;10576;53.556;9.868;2023-04-05T14:11:36;5.40;;;4.20;;
20830;SDS011;10576;53.556;9.868;2023-04-05T14:14:02;5.00;;;4.25;;
20830;SDS011;10576;53.556;9.868;2023-04-05T14:16:28;7.25;;;4.10;;
20830;SDS011;10576;53.556;9.868;2023-04-05T14:18:55;4.40;;;4.00;;
20830;SDS011;10576;53.556;9.868;2023-04-05T14:21:20;4.50;;;4.10;;
20830;SDS011;10576;53.556;9.868;2023-04-05T14:23:47;6.97;;;4.80;;
20830;SDS011;10576;53.556;9.868;2023-04-05T14:26:17;5.40;;;3.90;;
20830;SDS011;10576;53.556;9.868;2023-04-05T14:28:42;5.25;;;4.40;;
20830;SDS011;10576;53.556;9.868;2023-04-05T14:31:08;5.35;;;4.85;;
20830;SDS011;10576;53.556;9.868;2023-04-05T14:33:34;8.70;;;4.65;;
20830;SDS011;10576;53.556;9.868;2023-04-05T14:35:59;4.78;;;4.30;;
20830;SDS011;10576;53.556;9.868;2023-04-05T14:38:25;5.60;;;4.60;;
20830;SDS011;10576;53.556;9.868;2023-04-05T14:40:51;5.83;;;4.43;;
20830;SDS011;10576;53.556;9.868;2023-04-05T14:43:16;5.50;;;4.43;;
20830;SDS011;10576;53.556;9.868;2023-04-05T14:45:42;5.70;;;4.70;;
20830;SDS011;10576;53.556;9.868;2023-04-05T14:48:08;5.97;;;4.70;;
20830;SDS011;10576;53.556;9.868;2023-04-05T14:50:33;6.67;;;4.53;;
20830;SDS011;10576;53.556;9.868;2023-04-05T14:52:59;5.10;;;4.60;;
20830;SDS011;10576;53.556;9.868;2023-04-05T14:55:26;4.90;;;4.25;;
20830;SDS011;10576;53.556;9.868;2023-04-05T14:57:52;4.63;;;3.83;;
20830;SDS011;10576;53.556;9.868;2023-04-05T15:00:18;5.18;;;3.72;;
20830;SDS011;10576;53.556;9.868;2023-04-05T15:02:44;4.38;;;3.95;;
20830;SDS011;10576;53.556;9.868;2023-04-05T15:05:10;5.18;;;3.88;;
20830;SDS011;10576;53.556;9.868;2023-04-05T15:07:36;5.60;;;4.00;;
20830;SDS011;10576;53.556;9.868;2023-04-05T15:10:02;5.30;;;4.07;;
20830;SDS011;10576;53.556;9.868;2023-04-05T15:12:30;4.95;;;4.13;;
20830;SDS011;10576;53.556;9.868;2023-04-05T15:14:56;5.32;;;3.80;;
20830;SDS011;10576;53.556;9.868;2023-04-05T15:17:22;4.22;;;3.80;;